createdAt,value
2017-08-02T00:00:43.973Z,60.10
2017-08-02T00:03:11.509Z,60.90
2017-08-02T00:05:39.075Z,60.30
2017-08-02T00:08:06.627Z,60.30
2017-08-02T00:10:34.166Z,61.00
2017-08-02T00:13:02.488Z,60.60
2017-08-02T00:15:30.055Z,60.60
2017-08-02T00:17:57.596Z,60.20
2017-08-02T00:20:25.178Z,60.00
2017-08-02T00:22:52.740Z,60.20
2017-08-02T00:25:20.307Z,59.90
2017-08-02T00:27:47.854Z,60.10
2017-08-02T00:30:15.369Z,60.40
2017-08-02T00:32:43.697Z,60.10
2017-08-02T00:35:11.265Z,60.00
2017-08-02T00:37:38.845Z,59.60
2017-08-02T00:40:06.368Z,59.60
2017-08-02T00:42:33.941Z,60.00
2017-08-02T00:45:01.457Z,60.00
2017-08-02T00:47:29.012Z,60.30
2017-08-02T00:49:56.542Z,60.10
2017-08-02T00:52:24.101Z,60.40
2017-08-02T00:54:51.614Z,60.70
2017-08-02T00:57:19.174Z,60.60
2017-08-02T00:59:46.714Z,61.20
2017-08-02T01:02:14.993Z,61.10
2017-08-02T01:04:43.349Z,60.80
2017-08-02T01:07:10.866Z,60.80
2017-08-02T01:09:38.394Z,60.50
2017-08-02T01:12:05.930Z,60.80
2017-08-02T01:14:33.474Z,61.00
2017-08-02T01:17:00.978Z,60.80
2017-08-02T01:19:28.522Z,61.10
2017-08-02T01:21:56.078Z,60.50
2017-08-02T01:24:23.662Z,61.30
2017-08-02T01:26:51.222Z,60.40
2017-08-02T01:29:18.751Z,60.90
2017-08-02T01:31:47.111Z,61.10
2017-08-02T01:34:14.758Z,60.90
2017-08-02T01:36:42.334Z,61.60
2017-08-02T01:39:09.924Z,61.70
2017-08-02T01:41:38.242Z,61.40
2017-08-02T01:44:05.759Z,61.30
2017-08-02T01:46:33.293Z,60.70
2017-08-02T01:49:00.852Z,60.70
2017-08-02T01:51:28.385Z,61.00
2017-08-02T01:53:55.944Z,61.00
2017-08-02T01:56:23.534Z,61.30
2017-08-02T01:58:51.075Z,61.30
2017-08-02T02:01:18.622Z,61.00
2017-08-02T02:03:46.189Z,60.80
2017-08-02T02:06:13.745Z,61.00
2017-08-02T02:08:41.354Z,61.00
2017-08-02T02:11:09.660Z,61.00
2017-08-02T02:13:37.222Z,60.50
2017-08-02T02:16:04.802Z,60.80
2017-08-02T02:18:32.340Z,60.40
2017-08-02T02:20:59.903Z,60.60
2017-08-02T02:23:27.441Z,60.40
2017-08-02T02:25:55.021Z,60.30
2017-08-02T02:28:22.561Z,60.60
2017-08-02T02:30:50.099Z,60.30
2017-08-02T02:33:17.656Z,60.70
2017-08-02T02:35:45.194Z,60.50
2017-08-02T02:38:12.758Z,60.20
2017-08-02T02:40:40.361Z,61.10
2017-08-02T02:43:08.663Z,60.80
2017-08-02T02:45:36.286Z,60.70
2017-08-02T02:48:03.845Z,60.60
2017-08-02T02:50:31.368Z,60.10
2017-08-02T02:52:58.887Z,60.40
2017-08-02T02:55:26.481Z,60.40
2017-08-02T02:57:54.010Z,60.20
2017-08-02T03:00:21.596Z,60.40
2017-08-02T03:02:49.103Z,60.20
2017-08-02T03:05:16.719Z,59.80
2017-08-02T03:07:44.255Z,59.90
2017-08-02T03:10:11.790Z,59.70
2017-08-02T03:12:40.133Z,59.80
2017-08-02T03:15:07.655Z,59.70
2017-08-02T03:17:35.184Z,59.70
2017-08-02T03:20:03.500Z,60.80
2017-08-02T03:22:31.022Z,60.30
2017-08-02T03:24:59.314Z,60.20
2017-08-02T03:27:27.614Z,60.80
2017-08-02T03:29:55.147Z,60.80
2017-08-02T03:32:23.459Z,61.60
2017-08-02T03:34:50.988Z,61.60
2017-08-02T03:37:19.300Z,62.30
2017-08-02T03:39:47.602Z,62.40
2017-08-02T03:42:15.162Z,62.40
2017-08-02T03:44:42.667Z,63.00
2017-08-02T03:47:10.220Z,63.60
2017-08-02T03:49:38.506Z,64.50
2017-08-02T03:52:06.883Z,64.80
2017-08-02T03:54:34.444Z,64.70
2017-08-02T03:57:02.730Z,62.90
2017-08-02T03:59:30.275Z,62.90
2017-08-02T04:01:58.571Z,62.40
2017-08-02T04:04:26.130Z,62.30
2017-08-02T04:06:53.643Z,62.10
2017-08-02T04:09:21.182Z,61.80
2017-08-02T04:11:48.714Z,62.40
2017-08-02T04:14:16.266Z,62.70
2017-08-02T04:16:43.790Z,62.60
2017-08-02T04:19:11.325Z,62.50
2017-08-02T04:21:38.854Z,61.40
2017-08-02T04:24:06.419Z,60.70
2017-08-02T04:26:33.934Z,60.30
2017-08-02T04:29:02.260Z,59.70
2017-08-02T04:31:29.812Z,59.60
2017-08-02T04:33:57.365Z,59.60
2017-08-02T04:36:24.898Z,59.50
2017-08-02T04:38:53.170Z,60.10
2017-08-02T04:41:21.512Z,59.70
2017-08-02T04:43:49.023Z,59.60
2017-08-02T04:46:17.339Z,59.80
2017-08-02T04:48:44.861Z,59.80
2017-08-02T04:51:13.162Z,59.80
2017-08-02T04:53:40.663Z,59.70
2017-08-02T04:56:08.203Z,59.50
2017-08-02T04:58:35.717Z,60.00
2017-08-02T05:01:03.250Z,60.00
2017-08-02T05:03:30.776Z,59.80
2017-08-02T05:05:58.394Z,59.90
2017-08-02T05:08:25.913Z,59.70
2017-08-02T05:10:53.433Z,59.50
2017-08-02T05:13:21.019Z,59.40
2017-08-02T05:15:48.546Z,59.20
2017-08-02T05:18:16.104Z,59.00
2017-08-02T05:20:43.667Z,58.90
2017-08-02T05:23:11.203Z,58.60
2017-08-02T05:25:38.737Z,58.70
2017-08-02T05:28:06.292Z,58.10
2017-08-02T05:30:33.862Z,57.90
2017-08-02T05:33:01.417Z,57.90
2017-08-02T05:35:28.976Z,58.50
2017-08-02T05:37:56.494Z,57.80
2017-08-02T05:40:24.026Z,57.80
2017-08-02T05:42:51.562Z,57.80
2017-08-02T05:45:19.101Z,58.10
2017-08-02T05:47:46.635Z,57.70
2017-08-02T05:50:14.199Z,57.90
2017-08-02T05:52:41.734Z,58.00
2017-08-02T05:55:09.299Z,58.20
2017-08-02T05:57:36.823Z,58.50
2017-08-02T06:00:04.380Z,58.10
2017-08-02T06:02:31.932Z,58.30
2017-08-02T06:04:59.504Z,59.30
2017-08-02T06:07:27.054Z,59.00
2017-08-02T06:09:54.628Z,58.70
2017-08-02T06:12:22.154Z,58.40
2017-08-02T06:14:49.689Z,58.80
2017-08-02T06:17:17.255Z,58.60
2017-08-02T06:19:44.783Z,57.90
2017-08-02T06:22:12.404Z,58.50
2017-08-02T06:24:39.932Z,58.40
2017-08-02T06:27:07.488Z,58.70
2017-08-02T06:29:35.029Z,58.00
2017-08-02T06:32:02.582Z,58.10
2017-08-02T06:34:30.902Z,59.30
2017-08-02T06:36:58.423Z,59.20
2017-08-02T06:39:26.723Z,59.90
2017-08-02T06:41:54.300Z,59.90
2017-08-02T06:44:21.853Z,59.60
2017-08-02T06:46:49.422Z,59.90
2017-08-02T06:49:17.034Z,59.90
2017-08-02T06:51:45.336Z,59.60
2017-08-02T06:54:12.878Z,60.00
2017-08-02T06:56:41.201Z,59.60
2017-08-02T06:59:08.750Z,59.60
2017-08-02T07:01:36.267Z,59.10
2017-08-02T07:04:04.636Z,59.30
2017-08-02T07:06:32.166Z,59.20
2017-08-02T07:08:59.722Z,59.00
2017-08-02T07:11:27.221Z,58.10
2017-08-02T07:13:54.881Z,58.70
2017-08-02T07:16:22.415Z,58.80
2017-08-02T07:18:49.950Z,57.80
2017-08-02T07:21:17.570Z,57.70
2017-08-02T07:23:45.858Z,58.40
2017-08-02T07:26:13.466Z,58.30
2017-08-02T07:28:40.978Z,59.00
2017-08-02T07:31:08.537Z,58.00
2017-08-02T07:33:36.050Z,57.30
2017-08-02T07:36:03.623Z,55.90
2017-08-02T07:38:31.146Z,53.40
2017-08-02T07:40:58.736Z,52.30
2017-08-02T07:43:26.278Z,51.40
2017-08-02T07:45:53.862Z,51.40
2017-08-02T07:48:21.403Z,51.10
2017-08-02T07:50:48.979Z,52.00
2017-08-02T07:53:16.534Z,52.70
2017-08-02T07:55:44.114Z,53.80
2017-08-02T07:58:11.641Z,53.00
2017-08-02T08:00:39.261Z,52.10
2017-08-02T08:03:07.586Z,50.20
2017-08-02T08:05:35.151Z,50.10
2017-08-02T08:08:02.710Z,48.50
2017-08-02T08:10:30.240Z,46.90
2017-08-02T08:12:57.766Z,44.10
2017-08-02T08:15:26.065Z,44.90
2017-08-02T08:17:53.596Z,44.80
2017-08-02T08:20:21.136Z,44.00
2017-08-02T08:22:48.756Z,44.20
2017-08-02T08:25:16.251Z,43.30
2017-08-02T08:27:43.836Z,42.70
2017-08-02T08:30:11.404Z,42.20
2017-08-02T08:32:38.967Z,43.90
2017-08-02T08:35:07.240Z,44.90
2017-08-02T08:37:35.517Z,46.60
2017-08-02T08:40:03.884Z,47.00
2017-08-02T08:42:31.406Z,46.90
2017-08-02T08:44:59.033Z,47.00
2017-08-02T08:47:27.539Z,47.10
2017-08-02T08:49:55.088Z,47.10
2017-08-02T08:52:22.602Z,48.80
2017-08-02T08:54:50.134Z,49.30
2017-08-02T08:57:17.705Z,49.70
2017-08-02T08:59:45.323Z,50.30
2017-08-02T09:02:12.887Z,49.50
2017-08-02T09:04:40.445Z,49.80
2017-08-02T09:07:07.972Z,48.10
2017-08-02T09:09:35.512Z,48.90
2017-08-02T09:12:03.037Z,50.10
2017-08-02T09:14:30.713Z,49.00
2017-08-02T09:16:58.259Z,48.80
2017-08-02T09:19:25.784Z,47.20
2017-08-02T09:21:53.371Z,47.60
2017-08-02T09:24:20.953Z,48.20
2017-08-02T09:26:48.503Z,48.10
2017-08-02T09:29:16.027Z,49.70
2017-08-02T09:31:43.588Z,48.90
2017-08-02T09:34:11.908Z,49.10
2017-08-02T09:36:39.475Z,49.00
2017-08-02T09:39:07.037Z,48.00
2017-08-02T09:41:34.598Z,47.60
2017-08-02T09:44:02.119Z,48.00
2017-08-02T09:46:30.437Z,47.80
2017-08-02T09:48:57.956Z,47.80
2017-08-02T09:51:26.262Z,47.60
2017-08-02T09:53:53.823Z,47.50
2017-08-02T09:56:21.347Z,46.30
2017-08-02T09:58:48.920Z,47.20
2017-08-02T10:01:16.517Z,45.20
2017-08-02T10:03:44.099Z,43.10
2017-08-02T10:06:12.046Z,43.00
2017-08-02T10:08:39.612Z,43.00
2017-08-02T10:11:07.137Z,43.00
2017-08-02T10:13:34.688Z,42.40
2017-08-02T10:16:02.200Z,41.20
2017-08-02T10:18:29.759Z,39.50
2017-08-02T10:20:57.349Z,38.60
2017-08-02T10:23:25.644Z,37.60
2017-08-02T10:25:53.233Z,37.50
2017-08-02T10:28:20.771Z,37.50
2017-08-02T10:30:48.341Z,37.00
2017-08-02T10:33:15.910Z,35.60
2017-08-02T10:35:43.446Z,36.10
2017-08-02T10:38:10.975Z,37.80
2017-08-02T10:43:12.340Z,34.80
2017-08-02T10:45:39.891Z,34.30
2017-08-02T10:48:07.428Z,34.70
2017-08-02T10:50:34.975Z,34.50
2017-08-02T10:53:02.511Z,35.10
2017-08-02T10:55:30.095Z,34.20
2017-08-02T10:57:57.608Z,35.10
2017-08-02T11:00:25.115Z,35.70
2017-08-02T11:02:52.675Z,34.70
2017-08-02T11:05:20.236Z,33.60
2017-08-02T11:07:47.803Z,35.60
2017-08-02T11:10:15.343Z,34.70
2017-08-02T11:12:42.959Z,34.20
2017-08-02T11:15:11.251Z,35.60
2017-08-02T11:17:39.578Z,36.40
2017-08-02T11:20:07.196Z,36.30
2017-08-02T11:22:35.508Z,36.80
2017-08-02T11:25:03.040Z,36.80
2017-08-02T11:27:30.602Z,36.30
2017-08-02T11:29:58.889Z,35.00
2017-08-02T11:32:26.492Z,34.80
2017-08-02T11:34:54.015Z,35.60
2017-08-02T11:37:21.558Z,35.00
2017-08-02T11:39:49.965Z,34.10
2017-08-02T11:42:17.505Z,34.00
2017-08-02T11:44:45.047Z,33.10
2017-08-02T11:47:13.335Z,34.80
2017-08-02T11:49:42.012Z,33.10
2017-08-02T11:52:10.315Z,36.20
2017-08-02T11:54:37.858Z,36.10
2017-08-02T11:57:06.148Z,33.60
2017-08-02T11:59:33.704Z,33.60
2017-08-02T12:02:01.330Z,33.80
2017-08-02T12:04:29.122Z,34.40
2017-08-02T12:06:57.419Z,32.50
2017-08-02T12:09:24.994Z,32.40
2017-08-02T12:11:52.536Z,32.70
2017-08-02T12:14:20.061Z,32.80
2017-08-02T12:16:48.431Z,32.50
2017-08-02T12:19:15.997Z,32.40
2017-08-02T12:21:43.586Z,32.80
2017-08-02T12:24:11.171Z,33.10
2017-08-02T12:26:38.737Z,34.50
2017-08-02T12:29:06.251Z,35.00
2017-08-02T12:31:34.558Z,34.00
2017-08-02T12:34:02.095Z,33.90
2017-08-02T12:36:30.404Z,34.70
2017-08-02T12:38:57.970Z,34.70
2017-08-02T12:41:25.580Z,33.50
2017-08-02T12:43:53.099Z,34.70
2017-08-02T12:46:20.679Z,35.30
2017-08-02T12:48:48.219Z,36.20
2017-08-02T12:51:15.781Z,35.20
2017-08-02T12:53:43.306Z,34.10
2017-08-02T12:56:10.850Z,32.50
2017-08-02T12:58:39.179Z,31.90
2017-08-02T13:01:06.711Z,31.90
2017-08-02T13:03:34.268Z,31.40
2017-08-02T13:06:02.270Z,31.30
2017-08-02T13:08:29.831Z,30.80
2017-08-02T13:10:57.403Z,31.20
2017-08-02T13:13:24.952Z,32.30
2017-08-02T13:15:52.521Z,33.00
2017-08-02T13:18:20.075Z,33.30
2017-08-02T13:20:47.643Z,33.30
2017-08-02T13:23:15.232Z,32.60
2017-08-02T13:25:43.530Z,33.30
2017-08-02T13:28:11.096Z,33.20
2017-08-02T13:30:38.692Z,33.20
2017-08-02T13:33:06.236Z,32.80
2017-08-02T13:35:33.776Z,32.10
2017-08-02T13:38:01.350Z,31.60
2017-08-02T13:40:28.881Z,31.80
2017-08-02T13:42:56.408Z,32.40
2017-08-02T13:45:23.975Z,32.90
2017-08-02T13:47:51.843Z,31.20
2017-08-02T13:50:19.373Z,32.10
2017-08-02T13:52:46.920Z,31.00
2017-08-02T13:55:14.496Z,31.70
2017-08-02T13:57:42.035Z,32.20
2017-08-02T14:00:09.588Z,33.50
2017-08-02T14:02:37.110Z,33.00
2017-08-02T14:05:04.671Z,32.50
2017-08-02T14:07:32.220Z,32.90
2017-08-02T14:09:59.771Z,33.30
2017-08-02T14:12:27.378Z,33.50
2017-08-02T14:14:54.936Z,34.70
2017-08-02T14:17:22.502Z,32.20
2017-08-02T14:19:50.011Z,33.10
2017-08-02T14:22:17.592Z,33.00
2017-08-02T14:24:45.175Z,34.10
2017-08-02T14:27:12.749Z,34.20
2017-08-02T14:29:40.977Z,34.60
2017-08-02T14:32:08.551Z,35.50
2017-08-02T14:34:36.881Z,34.90
2017-08-02T14:37:04.429Z,34.80
2017-08-02T14:39:31.957Z,35.10
2017-08-02T14:42:00.347Z,36.30
2017-08-02T14:44:27.905Z,36.20
2017-08-02T14:46:56.240Z,37.20
2017-08-02T14:49:23.818Z,37.10
2017-08-02T14:51:51.395Z,37.70
2017-08-02T14:54:19.834Z,39.20
2017-08-02T14:56:47.391Z,38.60
2017-08-02T14:59:14.961Z,39.00
2017-08-02T15:01:42.475Z,39.10
2017-08-02T15:04:10.284Z,39.60
2017-08-02T15:06:37.834Z,40.00
2017-08-02T15:09:05.406Z,40.00
2017-08-02T15:11:32.954Z,40.60
2017-08-02T15:14:00.479Z,41.70
2017-08-02T15:16:27.986Z,42.40
2017-08-02T15:18:55.547Z,44.30
2017-08-02T15:21:23.408Z,43.90
2017-08-02T15:23:50.982Z,44.90
2017-08-02T15:26:18.503Z,45.20
2017-08-02T15:28:46.027Z,45.40
2017-08-02T15:31:14.350Z,46.10
2017-08-02T15:33:41.904Z,46.10
2017-08-02T15:36:09.470Z,48.30
2017-08-02T15:38:37.012Z,48.20
2017-08-02T15:41:04.552Z,47.70
2017-08-02T15:43:32.087Z,48.70
2017-08-02T15:45:59.634Z,50.20
2017-08-02T15:48:27.135Z,52.20
2017-08-02T15:50:54.722Z,50.20
2017-08-02T15:53:22.275Z,50.90
2017-08-02T15:55:49.826Z,48.90
2017-08-02T15:58:17.351Z,50.70
2017-08-02T16:00:44.914Z,52.10
2017-08-02T16:03:13.243Z,51.90
2017-08-02T16:05:40.818Z,51.90
2017-08-02T16:08:08.353Z,51.50
2017-08-02T16:10:35.879Z,52.50
2017-08-02T16:13:03.439Z,49.90
2017-08-02T16:15:31.019Z,50.70
2017-08-02T16:17:58.560Z,53.20
2017-08-02T16:20:26.946Z,51.60
2017-08-02T16:22:54.491Z,51.60
2017-08-02T16:25:22.972Z,51.70
2017-08-02T16:27:50.517Z,51.60
2017-08-02T16:30:18.071Z,50.90
2017-08-02T16:32:45.626Z,52.80
2017-08-02T16:35:13.186Z,51.90
2017-08-02T16:37:40.728Z,53.20
2017-08-02T16:40:08.296Z,51.50
2017-08-02T16:42:35.866Z,50.40
2017-08-02T16:45:03.411Z,50.40
2017-08-02T16:47:30.989Z,48.70
2017-08-02T16:49:59.550Z,50.60
2017-08-02T16:52:27.175Z,52.20
2017-08-02T16:54:55.465Z,52.10
2017-08-02T16:57:23.031Z,52.10
2017-08-02T16:59:50.583Z,51.20
2017-08-02T17:02:18.184Z,50.70
2017-08-02T17:04:45.764Z,50.40
2017-08-02T17:07:13.327Z,49.40
2017-08-02T17:09:41.651Z,51.20
2017-08-02T17:12:09.219Z,50.60
2017-08-02T17:14:36.769Z,51.30
2017-08-02T17:17:04.337Z,48.30
2017-08-02T17:19:31.859Z,47.40
2017-08-02T17:21:59.411Z,48.60
2017-08-02T17:24:26.954Z,48.40
2017-08-02T17:26:54.580Z,49.20
2017-08-02T17:29:22.106Z,49.00
2017-08-02T17:31:50.447Z,49.30
2017-08-02T17:34:17.956Z,49.20
2017-08-02T17:36:45.539Z,49.80
2017-08-02T17:39:13.083Z,49.00
2017-08-02T17:41:40.639Z,48.20
2017-08-02T17:44:08.204Z,49.60
2017-08-02T17:46:35.759Z,49.40
2017-08-02T17:49:03.286Z,48.10
2017-08-02T17:51:30.874Z,47.40
2017-08-02T17:53:58.741Z,49.30
2017-08-02T17:56:26.420Z,48.90
2017-08-02T17:58:53.979Z,47.90
2017-08-02T18:01:21.539Z,48.40
2017-08-02T18:03:49.071Z,48.40
2017-08-02T18:06:16.600Z,47.80
2017-08-02T18:08:44.123Z,48.00
2017-08-02T18:11:11.682Z,47.50
2017-08-02T18:13:39.232Z,47.80
2017-08-02T18:16:06.829Z,47.80
2017-08-02T18:18:34.635Z,48.80
2017-08-02T18:21:02.191Z,49.00
2017-08-02T18:23:29.745Z,49.60
2017-08-02T18:25:57.325Z,49.00
2017-08-02T18:28:25.606Z,49.70
2017-08-02T18:30:53.162Z,49.60
2017-08-02T18:33:20.731Z,50.10
2017-08-02T18:35:48.301Z,49.70
2017-08-02T18:38:15.852Z,49.40
2017-08-02T18:40:43.391Z,48.70
2017-08-02T18:43:10.956Z,48.70
2017-08-02T18:45:38.498Z,50.20
2017-08-02T18:48:06.048Z,49.60
2017-08-02T18:50:33.598Z,49.50
2017-08-02T18:53:01.994Z,50.00
2017-08-02T18:55:29.543Z,50.00
2017-08-02T18:57:57.102Z,51.50
2017-08-02T19:00:24.625Z,51.50
2017-08-02T19:02:52.425Z,53.10
2017-08-02T19:05:20.005Z,51.40
2017-08-02T19:07:47.608Z,54.10
2017-08-02T19:10:15.187Z,55.20
2017-08-02T19:12:42.734Z,55.40
2017-08-02T19:15:10.274Z,55.10
2017-08-02T19:17:37.799Z,53.40
2017-08-02T19:20:05.367Z,55.20
2017-08-02T19:22:32.913Z,56.80
2017-08-02T19:25:00.494Z,58.10
2017-08-02T19:27:28.047Z,58.80
2017-08-02T19:29:55.576Z,58.60
2017-08-02T19:32:23.201Z,58.90
2017-08-02T19:34:50.794Z,59.60
2017-08-02T19:37:18.346Z,59.90
2017-08-02T19:39:45.913Z,58.40
2017-08-02T19:42:13.474Z,59.30
2017-08-02T19:44:41.046Z,59.70
2017-08-02T19:47:08.592Z,59.10
2017-08-02T19:49:36.134Z,59.50
2017-08-02T19:52:03.722Z,59.10
2017-08-02T19:54:31.502Z,60.20
2017-08-02T19:56:59.062Z,60.60
2017-08-02T19:59:26.617Z,61.10
2017-08-02T20:01:54.172Z,63.40
2017-08-02T20:04:21.721Z,60.70
2017-08-02T20:06:49.262Z,61.10
2017-08-02T20:09:16.813Z,59.80
2017-08-02T20:11:44.339Z,61.30
2017-08-02T20:14:11.847Z,61.00
2017-08-02T20:16:39.386Z,63.50
2017-08-02T20:19:06.973Z,63.40
2017-08-02T20:21:34.555Z,64.20
2017-08-02T20:24:05.786Z,61.20
2017-08-02T20:26:33.314Z,63.30
2017-08-02T20:29:00.882Z,63.60
2017-08-02T20:31:28.440Z,64.00
2017-08-02T20:33:56.066Z,64.40
2017-08-02T20:36:24.760Z,64.00
2017-08-02T20:38:53.104Z,65.90
2017-08-02T20:41:20.750Z,65.00
2017-08-02T20:43:48.336Z,65.20
2017-08-02T20:46:15.897Z,65.90
2017-08-02T20:48:43.474Z,65.60
2017-08-02T20:51:11.011Z,65.70
2017-08-02T20:53:38.575Z,65.90
2017-08-02T20:56:06.172Z,65.70
2017-08-02T20:58:33.792Z,66.80
2017-08-02T21:01:01.332Z,65.60
2017-08-02T21:03:28.927Z,64.70
2017-08-02T21:05:57.251Z,66.00
2017-08-02T21:08:24.849Z,66.00
2017-08-02T21:10:52.435Z,64.80
2017-08-02T21:13:19.977Z,62.90
2017-08-02T21:15:47.508Z,64.40
2017-08-02T21:18:15.080Z,64.70
2017-08-02T21:20:43.207Z,64.40
2017-08-02T21:23:10.791Z,65.00
2017-08-02T21:25:38.340Z,66.70
2017-08-02T21:28:05.904Z,66.60
2017-08-02T21:30:33.459Z,67.90
2017-08-02T21:33:01.029Z,70.00
2017-08-02T21:35:28.631Z,68.70
2017-08-02T21:37:56.158Z,67.70
2017-08-02T21:40:23.723Z,68.50
2017-08-02T21:42:52.411Z,67.50
2017-08-02T21:45:20.708Z,68.30
2017-08-02T21:47:48.327Z,68.20
2017-08-02T21:50:15.875Z,68.00
2017-08-02T21:52:43.444Z,68.60
2017-08-02T21:55:11.023Z,67.50
2017-08-02T21:57:38.559Z,67.30
2017-08-02T22:00:06.088Z,67.30
2017-08-02T22:02:34.402Z,66.40
2017-08-02T22:05:01.955Z,66.40
2017-08-02T22:07:30.342Z,67.50
2017-08-02T22:09:57.894Z,67.50
2017-08-02T22:12:26.222Z,67.30
2017-08-02T22:14:53.755Z,66.90
2017-08-02T22:17:21.410Z,67.10
2017-08-02T22:19:48.994Z,67.30
2017-08-02T22:22:16.542Z,67.40
2017-08-02T22:24:44.099Z,68.10
2017-08-02T22:27:11.672Z,68.00
2017-08-02T22:29:39.242Z,67.40
2017-08-02T22:32:06.809Z,66.80
2017-08-02T22:34:34.411Z,67.50
2017-08-02T22:37:01.965Z,67.40
2017-08-02T22:39:30.262Z,68.70
2017-08-02T22:41:57.807Z,68.60
2017-08-02T22:44:26.183Z,68.10
2017-08-02T22:46:53.755Z,68.10
2017-08-02T22:49:21.309Z,68.30
2017-08-02T22:51:49.603Z,67.50
2017-08-02T22:54:17.222Z,67.50
2017-08-02T22:56:44.770Z,68.10
2017-08-02T22:59:12.330Z,68.00
2017-08-02T23:01:39.843Z,67.80
2017-08-02T23:04:07.413Z,67.70
2017-08-02T23:06:34.949Z,68.10
2017-08-02T23:09:04.173Z,68.50
2017-08-02T23:11:31.930Z,68.50
2017-08-02T23:13:59.500Z,68.70
2017-08-02T23:16:27.508Z,68.30
2017-08-02T23:18:55.632Z,68.20
2017-08-02T23:21:23.242Z,68.80
2017-08-02T23:23:50.906Z,67.80
2017-08-02T23:26:18.435Z,68.10
2017-08-02T23:28:46.050Z,68.30
2017-08-02T23:31:14.388Z,68.30
2017-08-02T23:33:41.928Z,68.10
2017-08-02T23:36:09.455Z,68.00
2017-08-02T23:38:37.762Z,67.90
2017-08-02T23:41:05.288Z,68.00
2017-08-02T23:43:32.830Z,67.60
2017-08-02T23:46:01.129Z,66.60
2017-08-02T23:48:29.453Z,67.50
2017-08-02T23:50:56.971Z,67.50
2017-08-02T23:53:24.530Z,67.40
2017-08-02T23:55:52.069Z,67.60
2017-08-02T23:58:19.610Z,68.30
